Time;durP1;ratioP1;P1;durP2;ratioP2;P2;SDS_P1;SDS_P2;PMS_P1;PMS_P2;Temp;Humidity;BMP_temperature;BMP_pressure;BME280_temperature;BME280_humidity;BME280_pressure;Samples;Min_cycle;Max_cycle;Signal;HPM_P1;HPM_P2
2022/07/01 00:01:19;;;;;;;9.90;1.70;;;;;;;25.67;38.63;98654.03;5014254;28;20108;-82
2022/07/01 00:03:51;;;;;;;4.25;1.58;;;;;;;25.68;38.78;98654.81;5014492;28;20030;-82
2022/07/01 00:06:17;;;;;;;4.28;1.65;;;;;;;25.68;38.87;98653.00;5014301;28;20084;-82
2022/07/01 00:08:42;;;;;;;7.22;1.50;;;;;;;25.67;38.63;98656.69;4997856;28;20493;-82
2022/07/01 00:11:08;;;;;;;2.85;1.50;;;;;;;25.63;38.60;98664.34;4997587;28;20036;-82
2022/07/01 00:13:34;;;;;;;2.30;1.60;;;;;;;25.60;38.91;98658.56;5016357;28;20092;-85
2022/07/01 00:15:59;;;;;;;3.15;1.52;;;;;;;25.58;38.90;98653.44;5000822;28;20133;-86
2022/07/01 00:18:27;;;;;;;2.60;1.50;;;;;;;25.61;38.89;98661.03;5034131;28;20061;-85
2022/07/01 00:20:53;;;;;;;5.15;1.67;;;;;;;25.59;38.92;98663.13;5015861;28;20037;-85
2022/07/01 00:23:18;;;;;;;5.55;1.65;;;;;;;25.56;39.19;98668.88;4998887;28;20076;-83
2022/07/01 00:25:44;;;;;;;4.68;1.60;;;;;;;25.50;39.15;98677.78;5015808;28;20417;-86
2022/07/01 00:28:10;;;;;;;3.90;1.58;;;;;;;25.45;39.43;98674.94;5016171;28;20068;-86
2022/07/01 00:30:35;;;;;;;2.50;1.70;;;;;;;25.46;39.46;98671.22;5015624;28;20033;-86
2022/07/01 00:33:01;;;;;;;5.90;1.90;;;;;;;25.45;39.64;98669.59;5014959;28;20030;-87
2022/07/01 00:35:26;;;;;;;2.58;1.83;;;;;;;25.38;39.34;98661.63;5014885;28;20026;-84
2022/07/01 00:37:52;;;;;;;7.20;1.73;;;;;;;25.36;39.42;98658.31;4998749;28;20120;-85
2022/07/01 00:40:18;;;;;;;5.18;1.85;;;;;;;25.39;39.80;98651.75;5031731;28;20030;-86
2022/07/01 00:42:43;;;;;;;2.47;1.77;;;;;;;25.38;39.52;98645.59;4998038;28;20037;-75
2022/07/01 00:45:10;;;;;;;3.60;1.60;;;;;;;25.37;39.82;98648.47;5029867;28;20504;-76
2022/07/01 00:47:38;;;;;;;5.30;1.90;;;;;;;25.34;39.80;98657.72;4996366;28;20038;-76
2022/07/01 00:50:09;;;;;;;3.38;1.77;;;;;;;25.31;40.11;98652.81;5013227;28;20113;-76
2022/07/01 00:52:35;;;;;;;4.07;1.70;;;;;;;25.26;40.13;98644.59;5013111;28;20076;-76
2022/07/01 00:55:04;;;;;;;4.70;1.55;;;;;;;25.18;40.43;98643.00;4996133;28;20042;-75
2022/07/01 00:57:33;;;;;;;5.03;1.73;;;;;;;25.18;40.47;98639.50;5013163;28;20068;-75
2022/07/01 00:59:59;;;;;;;4.20;2.00;;;;;;;25.17;40.65;98641.34;5013011;28;20080;-76
2022/07/01 01:02:24;;;;;;;3.92;1.85;;;;;;;25.17;40.65;98629.84;5012951;28;20030;-76
2022/07/01 01:04:50;;;;;;;4.47;2.25;;;;;;;25.21;40.73;98626.53;5012917;28;20105;-75
2022/07/01 01:07:15;;;;;;;6.15;2.30;;;;;;;25.19;40.44;98628.63;4996645;28;20037;-76
2022/07/01 01:09:41;;;;;;;8.07;2.20;;;;;;;25.18;40.82;98628.84;5012714;28;20057;-76
2022/07/01 01:12:06;;;;;;;9.63;2.33;;;;;;;25.16;40.60;98625.53;4996027;28;20049;-77
2022/07/01 01:14:48;;;;;;;4.70;1.73;;;;;;;25.10;40.65;98622.69;4996876;28;20498;-77
2022/07/01 01:17:14;;;;;;;6.93;2.10;;;;;;;25.10;40.65;98625.38;5012942;28;20444;-76
2022/07/01 01:19:40;;;;;;;4.32;1.70;;;;;;;25.11;40.64;98623.50;4996188;28;20102;-77
2022/07/01 01:22:06;;;;;;;4.97;1.80;;;;;;;25.06;40.92;98609.97;5029261;28;20115;-76
2022/07/01 01:24:31;;;;;;;5.15;1.98;;;;;;;25.08;40.95;98616.75;5029180;28;20084;-76
2022/07/01 01:26:57;;;;;;;4.90;1.60;;;;;;;25.07;41.26;98615.09;4996119;28;20554;-75
2022/07/01 01:29:23;;;;;;;5.03;1.80;;;;;;;25.10;41.18;98625.38;5012078;28;20073;-76
2022/07/01 01:31:48;;;;;;;3.72;1.77;;;;;;;25.09;41.27;98604.22;5012446;28;20481;-75
2022/07/01 01:34:13;;;;;;;8.48;2.00;;;;;;;25.08;41.76;98600.72;4995879;28;20029;-76
2022/07/01 01:36:39;;;;;;;5.95;1.83;;;;;;;25.10;41.76;98605.84;4995873;28;20052;-75
2022/07/01 01:41:36;;;;;;;7.03;2.10;;;;;;;25.10;41.80;98604.00;5027970;28;20042;-75
2022/07/01 01:44:01;;;;;;;7.05;1.90;;;;;;;25.10;41.94;98611.19;5012255;28;20029;-75
2022/07/01 01:46:29;;;;;;;6.53;1.67;;;;;;;25.06;42.23;98607.31;5012277;28;20065;-76
2022/07/01 01:48:54;;;;;;;2.77;1.70;;;;;;;25.08;42.07;98622.09;5012239;28;20030;-76
2022/07/01 01:51:20;;;;;;;6.97;1.90;;;;;;;25.09;42.12;98613.03;5012589;28;20032;-76
2022/07/01 01:53:45;;;;;;;9.57;1.85;;;;;;;25.05;42.32;98613.72;5028375;28;20042;-76
2022/07/01 01:56:11;;;;;;;5.68;1.90;;;;;;;25.05;42.56;98616.38;5012041;28;20029;-75
2022/07/01 01:58:36;;;;;;;7.45;1.98;;;;;;;25.06;42.79;98618.84;5012045;28;20037;-75
2022/07/01 02:01:02;;;;;;;6.85;1.50;;;;;;;25.01;42.45;98615.97;5027793;28;20469;-76
2022/07/01 02:03:28;;;;;;;5.38;1.80;;;;;;;25.04;42.92;98625.41;4995534;28;20025;-76
2022/07/01 02:05:54;;;;;;;5.60;1.90;;;;;;;25.04;42.84;98631.56;5012137;28;20045;-75
2022/07/01 02:08:19;;;;;;;5.78;1.63;;;;;;;24.98;42.88;98635.06;5013355;28;20401;-75
2022/07/01 02:10:45;;;;;;;6.30;1.92;;;;;;;25.04;43.12;98636.91;5015317;28;20033;-75
2022/07/01 02:13:10;;;;;;;4.78;1.70;;;;;;;25.03;43.01;98639.78;5014993;28;20045;-77
2022/07/01 02:15:36;;;;;;;4.97;1.83;;;;;;;25.00;43.35;98643.72;5031406;28;20026;-76
2022/07/01 02:18:01;;;;;;;4.70;1.80;;;;;;;24.97;43.57;98635.28;5014953;28;20473;-76
2022/07/01 02:20:27;;;;;;;4.28;1.80;;;;;;;24.98;43.18;98639.59;5015716;28;20030;-76
2022/07/01 02:22:52;;;;;;;5.60;2.00;;;;;;;24.95;43.57;98638.16;5014886;28;20026;-75
2022/07/01 02:25:19;;;;;;;6.57;1.67;;;;;;;24.96;43.67;98645.16;5015112;28;20030;-76
2022/07/01 02:27:44;;;;;;;5.97;2.10;;;;;;;24.95;43.49;98645.38;5014886;28;20087;-75
2022/07/01 02:30:10;;;;;;;6.90;1.60;;;;;;;24.80;43.92;98648.31;5030839;28;20041;-75
2022/07/01 02:32:35;;;;;;;6.28;1.92;;;;;;;24.85;44.09;98659.19;5031102;28;20033;-76
2022/07/01 02:35:01;;;;;;;10.82;1.60;;;;;;;24.82;43.89;98651.59;5015009;28;20485;-76
2022/07/01 02:37:27;;;;;;;9.80;1.73;;;;;;;25.05;44.35;98657.25;5024620;28;20084;-80
2022/07/01 02:39:53;;;;;;;8.20;2.20;;;;;;;25.28;43.87;98653.25;4986390;28;20021;-77
2022/07/01 02:42:26;;;;;;;12.40;1.98;;;;;;;25.45;43.23;98643.66;5019789;28;20049;-76
2022/07/01 02:44:53;;;;;;;2.03;1.60;;;;;;;25.62;42.80;98646.66;4990128;28;20056;-75
2022/07/01 02:47:19;;;;;;;9.97;2.17;;;;;;;25.72;42.72;98638.13;4987529;28;20044;-78
2022/07/01 02:49:45;;;;;;;5.35;1.83;;;;;;;25.81;42.56;98644.03;5002271;28;20040;-75
2022/07/01 02:52:10;;;;;;;4.28;1.63;;;;;;;25.90;42.24;98639.22;5020798;28;20039;-77
2022/07/01 02:54:36;;;;;;;4.57;1.90;;;;;;;25.91;42.25;98630.97;5005313;28;20421;-77
2022/07/01 02:57:02;;;;;;;6.63;1.73;;;;;;;25.99;42.25;98638.75;5018378;28;20042;-78
2022/07/01 02:59:28;;;;;;;5.63;1.77;;;;;;;26.08;42.02;98635.81;5020425;28;20029;-79
2022/07/01 03:01:54;;;;;;;7.75;1.60;;;;;;;26.11;42.02;98643.41;5002491;28;20026;-86
2022/07/01 03:04:19;;;;;;;4.47;1.48;;;;;;;26.28;41.70;98638.28;5021689;28;20052;-84
2022/07/01 03:06:45;;;;;;;5.90;1.63;;;;;;;26.46;41.10;98630.28;5003470;28;20040;-83
2022/07/01 03:09:10;;;;;;;8.68;1.67;;;;;;;26.61;40.83;98632.56;5022461;28;20033;-81
2022/07/01 03:11:36;;;;;;;8.07;1.80;;;;;;;26.58;41.48;98641.03;5006191;28;20025;-82
2022/07/01 03:14:01;;;;;;;6.00;1.83;;;;;;;26.70;41.24;98633.13;4991025;28;20580;-81
2022/07/01 03:16:27;;;;;;;8.18;1.88;;;;;;;27.07;40.81;98636.56;5007471;28;20038;-85
2022/07/01 03:18:52;;;;;;;6.65;1.80;;;;;;;27.48;39.60;98631.47;5005802;28;20112;-77
2022/07/01 03:21:19;;;;;;;9.52;2.13;;;;;;;27.82;38.42;98630.94;5007751;28;20025;-75
2022/07/01 03:23:44;;;;;;;7.78;1.63;;;;;;;28.20;38.67;98635.88;5007931;28;20050;-77
2022/07/01 03:26:10;;;;;;;3.42;1.70;;;;;;;28.56;37.49;98644.72;5008795;28;20053;-76
2022/07/01 03:28:35;;;;;;;7.00;1.80;;;;;;;28.92;36.67;98645.44;5009811;28;20048;-76
2022/07/01 03:31:01;;;;;;;7.25;1.88;;;;;;;29.25;35.76;98643.13;5013877;28;20037;-76
2022/07/01 03:33:27;;;;;;;3.92;1.77;;;;;;;29.61;34.83;98644.56;5030646;28;20037;-76
2022/07/01 03:35:52;;;;;;;6.38;2.00;;;;;;;29.98;34.05;98636.03;5033026;28;20191;-76
2022/07/01 03:38:18;;;;;;;6.95;1.90;;;;;;;30.36;33.30;98628.22;5034654;28;20473;-76
2022/07/01 03:40:43;;;;;;;5.88;1.80;;;;;;;30.74;33.06;98634.63;5032604;28;20038;-75
2022/07/01 03:43:09;;;;;;;8.95;1.60;;;;;;;31.12;32.02;98633.75;5015928;28;20500;-75
2022/07/01 03:45:34;;;;;;;6.20;1.83;;;;;;;31.56;31.39;98636.34;5002707;28;20079;-76
2022/07/01 03:48:02;;;;;;;6.22;1.92;;;;;;;31.97;30.50;98635.84;5009827;28;20113;-77
2022/07/01 03:50:27;;;;;;;5.18;1.80;;;;;;;32.42;30.19;98637.22;5024431;28;20140;-76
2022/07/01 03:55:38;;;;;;;6.25;1.52;;;;;;;33.38;28.45;98641.59;5014316;28;20135;-75
2022/07/01 03:58:03;;;;;;;8.32;1.85;;;;;;;33.81;28.12;98639.47;4997859;28;20095;-76
2022/07/01 04:00:29;;;;;;;9.85;1.90;;;;;;;34.26;27.66;98645.91;5014128;28;20037;-81
2022/07/01 04:02:55;;;;;;;8.73;1.85;;;;;;;34.80;26.73;98644.38;5002488;28;20033;-78
2022/07/01 04:05:20;;;;;;;7.72;1.75;;;;;;;35.27;25.90;98636.84;5018683;28;20037;-75
2022/07/01 04:07:46;;;;;;;6.90;2.15;;;;;;;35.82;25.40;98642.09;5013767;28;20030;-75
2022/07/01 04:10:11;;;;;;;5.68;1.60;;;;;;;36.36;24.72;98637.53;5013830;28;20433;-75
2022/07/01 04:12:37;;;;;;;10.27;2.08;;;;;;;36.81;24.32;98648.94;5012866;28;20046;-76
2022/07/01 04:15:03;;;;;;;9.82;1.70;;;;;;;37.35;23.41;98644.09;5013495;28;20049;-76
2022/07/01 04:17:28;;;;;;;8.75;1.75;;;;;;;37.80;22.70;98649.13;5013826;28;20057;-76
2022/07/01 04:19:55;;;;;;;9.63;2.08;;;;;;;38.17;22.13;98631.84;4997496;28;20050;-75
2022/07/01 04:22:32;;;;;;;6.93;1.73;;;;;;;38.66;21.58;98647.81;5012717;28;20018;-76
2022/07/01 04:24:58;;;;;;;8.82;2.00;;;;;;;39.11;21.09;98645.22;5013529;28;20474;-75
2022/07/01 04:27:24;;;;;;;9.00;1.95;;;;;;;39.53;20.42;98648.59;5013022;28;20139;-75
2022/07/01 04:29:49;;;;;;;10.13;1.77;;;;;;;39.92;19.94;98640.81;5013542;28;20139;-76
2022/07/01 04:32:15;;;;;;;9.38;2.10;;;;;;;40.31;19.39;98650.16;5029767;28;20041;-75
2022/07/01 04:34:40;;;;;;;10.85;2.30;;;;;;;40.73;19.19;98664.28;5012868;28;20108;-76
2022/07/01 04:37:06;;;;;;;9.15;2.20;;;;;;;41.16;18.72;98663.56;5013335;28;20539;-75
2022/07/01 04:39:31;;;;;;;13.55;2.60;;;;;;;41.54;18.50;98665.66;5023662;28;20041;-76
2022/07/01 04:42:00;;;;;;;8.60;2.20;;;;;;;41.93;17.93;98668.50;5015056;28;20029;-76
2022/07/01 04:44:26;;;;;;;14.63;2.53;;;;;;;42.23;17.41;98661.16;5013666;28;20159;-76
2022/07/01 04:46:52;;;;;;;12.02;2.50;;;;;;;42.63;16.86;98671.78;5021662;28;20071;-76
2022/07/01 04:49:18;;;;;;;13.57;2.67;;;;;;;42.97;16.75;98660.94;5032404;28;20455;-77
2022/07/01 04:51:43;;;;;;;14.52;2.40;;;;;;;43.37;16.43;98663.97;5016362;28;20124;-76
2022/07/01 04:54:09;;;;;;;15.37;3.00;;;;;;;43.77;16.17;98661.84;5015992;28;20485;-75
2022/07/01 04:56:34;;;;;;;9.27;2.43;;;;;;;44.01;15.75;98661.94;5034522;28;20033;-74
2022/07/01 04:59:00;;;;;;;23.40;2.90;;;;;;;44.37;15.61;98656.81;5016370;28;20480;-75
2022/07/01 05:01:26;;;;;;;14.53;3.07;;;;;;;44.73;15.08;98667.00;5016189;28;20544;-75
2022/07/01 05:03:52;;;;;;;19.60;2.70;;;;;;;45.07;14.93;98664.06;4999894;28;20279;-76
2022/07/01 05:06:17;;;;;;;15.90;2.70;;;;;;;45.33;14.72;98664.44;5016644;28;20033;-76
2022/07/01 05:08:43;;;;;;;13.07;2.67;;;;;;;45.59;14.29;98657.66;5032848;28;20374;-76
2022/07/01 05:11:08;;;;;;;15.43;2.90;;;;;;;45.96;14.05;98664.94;5016330;28;20052;-76
2022/07/01 05:13:34;;;;;;;11.30;2.87;;;;;;;46.32;13.87;98672.19;4999322;28;20045;-75
2022/07/01 05:16:00;;;;;;;12.13;2.97;;;;;;;46.66;13.47;98667.03;5015636;28;20500;-75
2022/07/01 05:23:53;;;;;;;11.52;2.55;;;;;;;47.57;12.77;98683.53;5032737;28;20037;-75
2022/07/01 05:26:18;;;;;;;12.87;2.90;;;;;;;47.79;12.55;98676.47;5033681;28;20025;-76
2022/07/01 05:28:44;;;;;;;10.90;2.67;;;;;;;48.03;12.08;98671.72;4999535;28;20065;-75
2022/07/01 05:31:10;;;;;;;10.57;2.60;;;;;;;48.24;11.88;98674.88;5032122;28;20147;-76
2022/07/01 05:33:36;;;;;;;12.98;3.00;;;;;;;48.36;11.69;98666.38;4999218;28;20036;-76
2022/07/01 05:36:01;;;;;;;8.73;2.50;;;;;;;48.60;11.71;98671.84;5015696;28;20036;-76
2022/07/01 05:38:27;;;;;;;15.13;2.87;;;;;;;48.71;11.37;98670.84;5032093;28;20041;-76
2022/07/01 05:40:53;;;;;;;11.63;2.60;;;;;;;48.89;11.59;98665.56;5032085;28;20025;-76
2022/07/01 05:43:19;;;;;;;12.05;2.47;;;;;;;49.05;11.45;98668.13;5032047;28;20076;-77
2022/07/01 05:45:44;;;;;;;14.07;2.35;;;;;;;49.17;11.25;98667.13;5015459;28;20033;-75
2022/07/01 05:48:10;;;;;;;8.33;1.97;;;;;;;49.31;11.34;98674.78;5015854;28;20033;-75
2022/07/01 05:50:35;;;;;;;10.03;2.00;;;;;;;49.41;11.21;98676.88;5032975;28;20029;-74
2022/07/01 05:53:01;;;;;;;7.00;1.75;;;;;;;49.49;10.75;98679.75;4998937;28;20025;-76
2022/07/01 05:55:26;;;;;;;13.93;2.33;;;;;;;49.56;10.76;98682.59;5015309;28;20542;-75
2022/07/01 05:57:52;;;;;;;10.57;2.17;;;;;;;49.59;10.89;98677.09;5032135;28;20040;-75
2022/07/01 06:00:18;;;;;;;11.68;2.40;;;;;;;49.65;10.49;98679.53;5031876;28;20037;-75
2022/07/01 06:02:43;;;;;;;8.27;1.97;;;;;;;49.67;11.01;98679.94;5015302;28;20025;-76
2022/07/01 06:05:09;;;;;;;13.23;2.43;;;;;;;49.66;10.44;98679.16;5031536;28;20322;-74
2022/07/01 06:07:34;;;;;;;10.70;1.75;;;;;;;49.61;11.00;98679.47;5032706;28;20029;-75
2022/07/01 06:10:00;;;;;;;10.33;2.33;;;;;;;49.64;10.40;98681.50;5031498;28;20029;-75
2022/07/01 06:12:25;;;;;;;18.23;2.00;;;;;;;49.66;10.45;98686.66;5031147;28;20311;-75
2022/07/01 06:14:51;;;;;;;15.17;2.27;;;;;;;49.70;10.76;98681.94;5031871;28;20396;-74
2022/07/01 06:17:16;;;;;;;11.73;1.90;;;;;;;49.68;10.99;98687.09;5015039;28;20030;-75
2022/07/01 06:19:42;;;;;;;11.90;2.00;;;;;;;49.61;11.10;98682.25;5031198;28;20029;-75
2022/07/01 06:22:08;;;;;;;13.82;2.08;;;;;;;49.61;11.24;98685.84;5031127;28;20041;-76
2022/07/01 06:24:33;;;;;;;9.02;1.88;;;;;;;49.57;10.97;98676.69;5014985;28;20116;-76
2022/07/01 06:26:59;;;;;;;9.93;1.88;;;;;;;49.53;11.27;98684.16;5032671;28;20033;-76
2022/07/01 06:29:27;;;;;;;8.18;1.70;;;;;;;49.49;11.31;98685.28;5030998;28;20400;-75
2022/07/01 06:31:53;;;;;;;8.07;1.60;;;;;;;49.48;11.51;98683.69;5031020;28;20119;-75
2022/07/01 06:34:18;;;;;;;10.20;1.80;;;;;;;49.47;11.53;98677.34;4998298;28;20025;-76
2022/07/01 06:36:44;;;;;;;5.90;1.50;;;;;;;49.45;11.68;98676.91;5015135;28;20128;-76
2022/07/01 06:39:09;;;;;;;8.20;1.90;;;;;;;49.44;10.85;98683.66;4998346;28;20503;-75
2022/07/01 06:41:35;;;;;;;9.77;1.87;;;;;;;49.42;11.37;98685.97;5031023;28;20064;-75
2022/07/01 06:44:01;;;;;;;10.33;1.70;;;;;;;49.37;11.51;98678.03;5014548;28;20029;-75
2022/07/01 06:46:27;;;;;;;;;;;;;;;49.18;11.83;98682.56;5019316;28;20479;-75
2022/07/01 06:48:52;;;;;;;6.07;1.60;;;;;;;49.14;11.33;98675.38;5037602;28;19913;-75
2022/07/01 06:51:18;;;;;;;8.53;1.50;;;;;;;49.12;11.35;98686.00;5037665;28;20029;-76
2022/07/01 06:53:44;;;;;;;10.80;1.60;;;;;;;49.03;11.99;98684.34;5037429;28;20366;-76
2022/07/01 06:56:11;;;;;;;6.68;1.55;;;;;;;48.96;12.21;98681.47;5021606;28;20025;-76
2022/07/01 06:58:36;;;;;;;12.00;1.65;;;;;;;48.91;11.93;98681.81;5004324;28;20044;-75
2022/07/01 07:01:02;;;;;;;6.73;1.60;;;;;;;48.86;12.39;98687.69;5021078;28;20104;-75
2022/07/01 07:03:27;;;;;;;7.90;1.60;;;;;;;48.75;12.49;98683.94;5037557;28;20037;-75
2022/07/01 07:05:53;;;;;;;10.33;1.40;;;;;;;48.71;12.16;98692.19;5020946;28;20049;-76
2022/07/01 07:08:18;;;;;;;12.07;1.60;;;;;;;48.68;12.66;98684.63;5005205;28;20104;-76
2022/07/01 07:10:44;;;;;;;8.88;1.83;;;;;;;48.62;12.77;98689.69;5021375;28;20420;-76
2022/07/01 07:13:09;;;;;;;9.97;1.60;;;;;;;48.54;12.78;98685.22;5020643;28;20136;-76
2022/07/01 07:15:35;;;;;;;7.17;1.33;;;;;;;48.45;12.20;98676.41;5004702;28;20068;-76
2022/07/01 07:18:00;;;;;;;6.13;1.40;;;;;;;48.33;12.28;98680.94;5004558;28;20091;-76
2022/07/01 07:20:26;;;;;;;9.17;1.53;;;;;;;48.23;12.60;98681.56;5004583;28;20120;-76
2022/07/01 07:22:52;;;;;;;7.90;1.50;;;;;;;48.13;12.60;98679.44;5021071;28;20036;-76
2022/07/01 07:25:18;;;;;;;6.10;1.40;;;;;;;47.99;12.76;98680.75;5004603;28;20079;-76
2022/07/01 07:27:46;;;;;;;5.73;1.40;;;;;;;47.89;13.09;98689.69;5037469;28;20040;-76
2022/07/01 07:30:12;;;;;;;11.05;1.55;;;;;;;47.80;13.20;98683.59;5021436;28;20041;-75
2022/07/01 07:32:38;;;;;;;5.80;1.30;;;;;;;47.68;13.15;98692.06;5004445;28;20025;-75
2022/07/01 07:35:04;;;;;;;8.10;1.53;;;;;;;47.57;13.38;98687.13;5020939;28;20026;-75
2022/07/01 07:37:32;;;;;;;4.80;1.50;;;;;;;47.46;13.49;98688.84;5037540;28;20108;-76
2022/07/01 07:39:58;;;;;;;7.05;1.40;;;;;;;47.35;13.27;98694.19;5021042;28;20037;-74
2022/07/01 07:42:23;;;;;;;4.15;1.42;;;;;;;47.26;12.67;98694.38;5004634;28;20468;-76
2022/07/01 07:44:49;;;;;;;3.87;1.57;;;;;;;47.11;12.45;98693.31;5020177;28;20064;-74
2022/07/01 07:47:14;;;;;;;3.37;1.20;;;;;;;46.96;12.39;98685.88;5037170;28;20034;-76
2022/07/01 07:49:40;;;;;;;3.33;1.27;;;;;;;46.81;11.95;98690.25;5037378;28;20459;-75
2022/07/01 07:52:05;;;;;;;7.03;1.30;;;;;;;46.67;11.79;98685.22;5020316;28;20040;-76
2022/07/01 07:54:31;;;;;;;9.23;1.73;;;;;;;46.46;13.20;98685.47;5020632;28;20116;-75
2022/07/01 07:56:56;;;;;;;7.13;2.07;;;;;;;46.30;12.98;98682.75;5019328;28;20809;-76
2022/07/01 07:59:22;;;;;;;6.37;1.63;;;;;;;46.14;13.64;98684.69;5017337;28;20131;-76
2022/07/01 08:01:47;;;;;;;5.57;1.80;;;;;;;45.96;14.04;98682.28;5033512;28;20038;-76
2022/07/01 08:04:13;;;;;;;6.30;1.70;;;;;;;45.76;14.41;98680.56;5017829;28;20075;-76
2022/07/01 08:06:39;;;;;;;7.83;1.53;;;;;;;45.60;14.24;98684.09;5033515;28;20061;-76
2022/07/01 08:09:04;;;;;;;11.43;1.70;;;;;;;45.41;14.46;98679.25;5017679;28;20040;-76
2022/07/01 08:11:30;;;;;;;11.60;1.70;;;;;;;45.26;14.92;98683.53;5033702;28;20502;-76
2022/07/01 08:13:55;;;;;;;10.07;1.80;;;;;;;45.11;14.89;98690.56;5033633;28;20049;-75
2022/07/01 08:16:21;;;;;;;6.70;1.50;;;;;;;44.95;15.27;98692.44;5000827;28;20045;-75
2022/07/01 08:18:46;;;;;;;9.07;2.03;;;;;;;44.68;15.47;98692.00;5033997;28;20036;-80
2022/07/01 08:21:12;;;;;;;8.43;1.77;;;;;;;44.51;15.60;98687.53;5016949;28;20428;-77
2022/07/01 08:23:37;;;;;;;8.43;1.87;;;;;;;44.32;15.57;98692.81;5000975;28;20040;-76
2022/07/01 08:26:03;;;;;;;5.83;1.50;;;;;;;44.22;15.89;98696.81;5033666;28;20040;-74
2022/07/01 08:28:29;;;;;;;12.23;1.73;;;;;;;43.87;16.32;98694.41;5016833;28;20045;-76
2022/07/01 08:30:55;;;;;;;8.32;1.60;;;;;;;43.68;16.60;98695.72;5033689;28;20108;-77
2022/07/01 08:33:20;;;;;;;5.60;1.83;;;;;;;43.62;16.26;98699.00;5017126;28;20037;-75
2022/07/01 08:35:46;;;;;;;7.03;1.60;;;;;;;43.50;16.52;98692.34;5016971;28;20029;-75
2022/07/01 08:38:12;;;;;;;2.58;1.52;;;;;;;43.28;16.50;98690.72;5032869;28;20037;-74
2022/07/01 08:40:37;;;;;;;6.07;1.60;;;;;;;43.11;16.53;98693.59;5016850;28;20083;-76
2022/07/01 08:43:04;;;;;;;7.77;1.70;;;;;;;43.10;16.75;98698.31;5033424;28;20033;-76
2022/07/01 08:45:31;;;;;;;6.75;1.65;;;;;;;42.96;16.49;98701.28;5017114;28;20033;-77
2022/07/01 08:48:00;;;;;;;6.65;1.75;;;;;;;42.89;16.71;98698.28;5033491;28;20084;-75
2022/07/01 08:50:27;;;;;;;7.97;1.65;;;;;;;42.81;16.73;98691.69;5017370;28;20080;-76
2022/07/01 08:52:52;;;;;;;5.78;1.73;;;;;;;42.66;16.93;98697.75;5016547;28;20033;-77
2022/07/01 08:55:19;;;;;;;4.53;1.53;;;;;;;42.69;17.12;98704.53;5000397;28;20042;-76
2022/07/01 08:57:45;;;;;;;5.68;1.65;;;;;;;42.36;16.85;98705.16;5016909;28;20124;-76
2022/07/01 09:00:11;;;;;;;8.47;2.07;;;;;;;42.19;16.95;98698.59;5015713;28;20091;-76
2022/07/01 09:03:09;;;;;;;4.30;1.73;;;;;;;41.32;17.50;98696.75;5017021;28;20033;-75
2022/07/01 09:05:34;;;;;;;5.85;1.48;;;;;;;41.29;17.41;98699.34;4976759;28;20129;-75
2022/07/01 09:08:04;;;;;;;6.32;1.67;;;;;;;41.29;17.37;98697.41;4960347;28;20026;-76
2022/07/01 09:10:36;;;;;;;11.73;2.00;;;;;;;41.16;16.94;98699.16;4944072;28;20026;-76
2022/07/01 09:13:08;;;;;;;3.58;1.52;;;;;;;41.19;16.88;98684.81;4976830;28;20050;-74
2022/07/01 09:15:34;;;;;;;5.63;1.55;;;;;;;41.07;17.24;98689.31;4943961;28;20149;-75
2022/07/01 09:18:07;;;;;;;10.95;1.60;;;;;;;40.76;17.38;98684.75;4960060;28;20076;-76
2022/07/01 09:20:36;;;;;;;3.83;1.60;;;;;;;40.41;17.35;98701.84;4976173;28;20038;-75
2022/07/01 09:23:07;;;;;;;5.65;1.58;;;;;;;40.41;17.08;98695.56;4959777;28;20121;-77
2022/07/01 09:25:37;;;;;;;5.53;1.75;;;;;;;40.44;17.10;98695.75;4943495;28;20661;-75
2022/07/01 09:28:23;;;;;;;8.40;1.83;;;;;;;40.39;17.19;98701.34;4959497;28;20170;-76
2022/07/01 09:30:54;;;;;;;3.05;1.50;;;;;;;40.36;17.77;98690.22;4959708;28;20026;-76
2022/07/01 09:33:23;;;;;;;3.78;1.80;;;;;;;40.14;17.26;98687.25;4975801;28;20034;-75
2022/07/01 09:35:49;;;;;;;5.20;1.52;;;;;;;40.04;17.75;98682.03;4959944;28;20140;-75
2022/07/01 09:38:16;;;;;;;6.18;1.70;;;;;;;40.14;17.60;98683.72;4943487;28;20098;-74
2022/07/01 09:40:52;;;;;;;3.83;1.50;;;;;;;40.14;17.71;98686.44;4975306;28;20129;-76
2022/07/01 09:43:19;;;;;;;10.18;1.60;;;;;;;40.21;17.71;98684.06;4999792;28;20112;-76
2022/07/01 09:46:03;;;;;;;8.43;1.60;;;;;;;40.19;17.60;98686.31;5015409;28;20402;-75
2022/07/01 09:48:32;;;;;;;8.80;1.75;;;;;;;40.13;17.76;98684.81;5015547;28;20037;-75
2022/07/01 09:50:57;;;;;;;5.90;1.55;;;;;;;39.88;18.05;98687.06;5031951;28;20504;-77
2022/07/01 09:53:23;;;;;;;9.07;1.80;;;;;;;39.98;17.88;98680.59;5014986;28;20045;-76
2022/07/01 09:55:48;;;;;;;4.85;1.80;;;;;;;39.83;17.42;98672.75;5015279;28;20026;-76
2022/07/01 09:58:14;;;;;;;6.32;1.95;;;;;;;39.59;17.68;98682.06;5032050;28;20117;-77
2022/07/01 10:00:40;;;;;;;5.95;1.65;;;;;;;39.43;18.17;98673.41;4998954;28;20569;-75
2022/07/01 10:03:06;;;;;;;6.47;1.58;;;;;;;39.44;18.23;98680.47;5015490;28;20072;-75
2022/07/01 10:05:36;;;;;;;6.63;1.75;;;;;;;39.51;18.00;98671.88;5015461;28;20021;-76
2022/07/01 10:08:11;;;;;;;4.68;1.77;;;;;;;39.06;18.51;98673.41;4999207;28;20139;-76
2022/07/01 10:11:13;;;;;;;4.45;1.63;;;;;;;38.90;18.76;98661.19;5032833;28;20029;-77
2022/07/01 10:13:41;;;;;;;6.00;1.80;;;;;;;38.49;19.38;98651.13;4990759;28;20116;-74
2022/07/01 10:16:06;;;;;;;4.70;1.65;;;;;;;38.29;19.41;98655.09;4959470;28;20145;-74
2022/07/01 10:18:32;;;;;;;5.35;1.80;;;;;;;38.11;19.54;98663.03;4943504;28;20061;-75
2022/07/01 10:20:57;;;;;;;4.10;2.30;;;;;;;37.98;19.60;98653.69;4974380;28;20070;-75
2022/07/01 10:23:40;;;;;;;9.07;1.73;;;;;;;37.85;19.68;98656.41;4942781;28;20038;-75
2022/07/01 10:26:07;;;;;;;7.90;1.80;;;;;;;37.74;19.92;98653.06;4959417;28;20035;-76
2022/07/01 10:28:42;;;;;;;6.03;1.83;;;;;;;37.82;19.96;98657.81;4943216;28;20074;-74
2022/07/01 10:31:15;;;;;;;7.80;1.75;;;;;;;37.86;20.28;98658.84;4991232;28;20049;-78
2022/07/01 10:33:52;;;;;;;6.22;1.90;;;;;;;37.81;19.64;98667.91;4960376;28;20126;-75
2022/07/01 10:36:31;;;;;;;9.68;1.90;;;;;;;37.83;19.68;98662.97;4990812;28;20041;-76
2022/07/01 10:39:13;;;;;;;4.78;1.50;;;;;;;37.97;19.98;98670.34;4974547;28;20120;-75
2022/07/01 10:41:53;;;;;;;3.15;1.60;;;;;;;38.12;20.32;98670.06;4974373;28;20046;-74
2022/07/01 10:44:20;;;;;;;4.05;1.70;;;;;;;38.13;20.02;98659.97;4990886;28;20034;-76
2022/07/01 10:47:05;;;;;;;3.60;1.42;;;;;;;38.13;20.14;98655.34;4965003;28;20046;-75
2022/07/01 10:49:37;;;;;;;6.20;1.80;;;;;;;38.24;20.01;98638.81;5000252;28;20416;-75
2022/07/01 10:52:10;;;;;;;3.67;1.90;;;;;;;38.24;19.85;98639.63;5031173;28;20064;-74
2022/07/01 10:54:36;;;;;;;4.30;1.73;;;;;;;38.20;19.72;98638.63;5030736;28;20035;-76
2022/07/01 10:57:19;;;;;;;12.35;2.22;;;;;;;38.19;20.00;98639.72;5032641;28;20455;-74
2022/07/01 11:00:00;;;;;;;13.55;1.90;;;;;;;38.25;19.76;98635.78;5030883;28;20441;-75
2022/07/01 11:02:32;;;;;;;6.25;1.83;;;;;;;38.19;19.72;98640.53;5030924;28;20060;-75
2022/07/01 11:04:59;;;;;;;6.80;1.60;;;;;;;38.15;20.22;98649.59;5032187;28;20033;-76
2022/07/01 11:07:27;;;;;;;4.65;2.17;;;;;;;38.12;20.34;98672.00;4998346;28;20485;-75
2022/07/01 11:09:53;;;;;;;4.05;2.05;;;;;;;37.92;20.70;98665.78;5015117;28;20039;-75
2022/07/01 11:12:20;;;;;;;5.03;1.80;;;;;;;37.89;20.80;98665.59;5014251;28;20041;-75
2022/07/01 11:14:45;;;;;;;3.75;1.63;;;;;;;37.80;20.92;98673.66;5014658;28;19970;-75
2022/07/01 11:17:11;;;;;;;7.60;1.70;;;;;;;37.68;21.40;98667.84;4998006;28;20455;-75
2022/07/01 11:19:36;;;;;;;6.57;1.40;;;;;;;37.50;21.20;98669.47;5031884;28;20056;-76
2022/07/01 11:22:03;;;;;;;3.97;1.80;;;;;;;37.38;21.64;98680.81;5014121;28;20036;-76
2022/07/01 11:24:28;;;;;;;7.32;1.67;;;;;;;37.18;21.59;98692.78;5014200;28;20053;-75
2022/07/01 11:27:05;;;;;;;2.90;1.30;;;;;;;37.00;21.71;98678.88;5014532;28;20069;-76
2022/07/01 11:29:30;;;;;;;3.67;1.52;;;;;;;36.78;22.02;98671.28;5015036;28;20021;-75
2022/07/01 11:31:56;;;;;;;2.08;1.40;;;;;;;36.63;22.90;98676.91;5031779;28;20444;-75
2022/07/01 11:34:21;;;;;;;6.35;2.08;;;;;;;36.43;23.29;98676.00;5018125;28;20461;-75
2022/07/01 11:39:34;;;;;;;6.35;2.00;;;;;;;36.06;24.22;98669.31;5035457;28;20036;-75
2022/07/01 11:42:02;;;;;;;8.82;1.92;;;;;;;35.85;24.75;98660.53;5018330;28;20025;-77
2022/07/01 11:44:33;;;;;;;4.30;1.90;;;;;;;35.70;24.80;98656.03;5017986;28;20094;-76